Time;durP1;ratioP1;P1;durP2;ratioP2;P2;SDS_P1;SDS_P2;PMS_P1;PMS_P2;Temp;Humidity;BMP_temperature;BMP_pressure;BME280_temperature;BME280_humidity;BME280_pressure;Samples;Min_cycle;Max_cycle;Signal;HPM_P1;HPM_P2
2022/11/07 00:02:19;;;;;;;6.63;1.52;;;13.10;99.90;;;;;;4979376;28;20433;-81
2022/11/07 00:04:45;;;;;;;6.53;1.83;;;13.00;99.90;;;;;;4979131;28;20026;-81
2022/11/07 00:07:11;;;;;;;6.47;1.50;;;13.10;99.90;;;;;;4996637;28;20034;-82
2022/11/07 00:09:36;;;;;;;7.65;1.67;;;13.00;99.90;;;;;;4979074;28;20027;-82
2022/11/07 00:12:02;;;;;;;9.20;2.28;;;13.00;99.90;;;;;;4997959;28;20100;-81
2022/11/07 00:14:28;;;;;;;9.85;1.70;;;13.00;99.90;;;;;;4978950;28;20037;-83
2022/11/07 00:16:54;;;;;;;6.03;1.50;;;13.00;99.90;;;;;;4996269;28;20027;-82
2022/11/07 00:19:21;;;;;;;6.75;1.40;;;13.00;99.90;;;;;;4979352;28;20113;-83
2022/11/07 00:21:47;;;;;;;6.72;1.20;;;13.00;99.90;;;;;;4996181;28;20058;-82
2022/11/07 00:24:16;;;;;;;5.18;1.17;;;12.90;99.90;;;;;;4986899;28;20124;-82
2022/11/07 00:26:43;;;;;;;7.15;1.27;;;12.90;99.90;;;;;;4986841;28;20023;-81
2022/11/07 00:29:17;;;;;;;9.02;1.45;;;12.90;99.90;;;;;;5027108;28;20022;-81
2022/11/07 00:31:43;;;;;;;8.25;1.40;;;12.90;99.90;;;;;;4997926;28;20565;-82
2022/11/07 00:34:08;;;;;;;10.20;1.60;;;12.90;99.90;;;;;;5029638;28;20034;-81
2022/11/07 00:36:34;;;;;;;8.80;1.52;;;12.90;99.90;;;;;;4978647;28;20026;-81
2022/11/07 00:39:00;;;;;;;8.93;1.60;;;12.90;99.90;;;;;;4985970;28;20022;-81
2022/11/07 00:41:25;;;;;;;4.93;1.20;;;12.90;99.90;;;;;;4998113;28;20090;-81
2022/11/07 00:43:52;;;;;;;5.88;1.20;;;12.90;99.90;;;;;;4994620;28;20513;-81
2022/11/07 00:46:18;;;;;;;8.35;1.60;;;12.90;99.90;;;;;;4980055;28;20034;-82
2022/11/07 00:48:44;;;;;;;6.18;1.13;;;12.90;99.90;;;;;;5008835;28;20026;-81
2022/11/07 00:51:12;;;;;;;8.02;1.50;;;12.90;99.90;;;;;;5047125;28;20022;-81
2022/11/07 00:53:38;;;;;;;4.70;1.08;;;12.90;99.90;;;;;;5005800;28;20046;-81
2022/11/07 00:56:07;;;;;;;7.88;2.00;;;12.90;99.90;;;;;;5049405;28;20038;-82
2022/11/07 00:58:33;;;;;;;8.38;1.45;;;12.90;99.90;;;;;;5010824;28;20041;-82
2022/11/07 01:01:05;;;;;;;4.00;1.00;;;12.90;99.90;;;;;;5000391;28;20023;-82
2022/11/07 01:06:14;;;;;;;6.40;1.20;;;12.90;99.90;;;;;;5005165;28;20053;-87
2022/11/07 01:08:40;;;;;;;6.22;1.50;;;12.90;99.90;;;;;;4988993;28;20027;-87
2022/11/07 01:11:06;;;;;;;6.70;1.70;;;13.00;99.90;;;;;;5009189;28;20022;-87
2022/11/07 01:13:33;;;;;;;4.75;1.08;;;13.00;99.90;;;;;;4979170;28;20027;-86
2022/11/07 01:15:59;;;;;;;7.00;1.10;;;13.00;99.90;;;;;;4962675;28;20027;-84
2022/11/07 01:18:24;;;;;;;6.25;1.15;;;13.00;99.90;;;;;;4977366;28;20042;-82
2022/11/07 01:20:50;;;;;;;8.45;1.45;;;13.00;99.90;;;;;;4995467;28;20536;-83
2022/11/07 01:23:17;;;;;;;8.18;1.38;;;13.10;99.90;;;;;;4983816;28;20095;-84
2022/11/07 01:25:42;;;;;;;5.93;1.02;;;13.10;99.90;;;;;;4989117;28;20030;-83
2022/11/07 01:28:09;;;;;;;6.90;1.35;;;13.00;99.90;;;;;;4979911;28;20408;-83
2022/11/07 01:30:39;;;;;;;6.97;1.10;;;13.00;99.90;;;;;;4999934;28;20031;-83
2022/11/07 01:33:05;;;;;;;7.25;1.27;;;13.00;99.90;;;;;;4984197;28;20380;-82
2022/11/07 01:35:32;;;;;;;6.90;1.38;;;13.00;99.90;;;;;;4989337;28;20030;-83
2022/11/07 01:37:58;;;;;;;5.82;1.05;;;13.00;99.90;;;;;;4979843;28;20041;-88
2022/11/07 01:40:24;;;;;;;8.50;1.38;;;13.00;99.90;;;;;;4980512;28;20030;-86
2022/11/07 01:42:49;;;;;;;3.70;0.80;;;13.00;99.90;;;;;;4979244;28;20473;-85
2022/11/07 01:45:28;;;;;;;6.72;1.35;;;13.10;99.90;;;;;;4998997;28;20091;-85
2022/11/07 01:47:56;;;;;;;5.95;1.10;;;13.10;99.90;;;;;;4979893;28;20081;-86
2022/11/07 01:50:22;;;;;;;7.25;1.50;;;13.10;99.90;;;;;;4994934;28;20382;-86
2022/11/07 01:52:51;;;;;;;8.20;1.05;;;13.10;99.90;;;;;;4988663;28;20098;-85
2022/11/07 01:55:22;;;;;;;5.95;1.00;;;13.10;99.90;;;;;;4981996;28;20107;-84
2022/11/07 01:57:58;;;;;;;6.43;1.10;;;13.10;99.90;;;;;;4984171;28;20492;-85
2022/11/07 02:00:24;;;;;;;8.57;1.52;;;13.10;99.90;;;;;;4983728;28;20095;-85
2022/11/07 02:02:59;;;;;;;6.60;1.08;;;13.10;99.90;;;;;;4979366;28;20044;-85
2022/11/07 02:05:31;;;;;;;7.93;1.42;;;13.10;99.90;;;;;;4997895;28;20037;-82
2022/11/07 02:07:57;;;;;;;9.03;1.23;;;13.10;99.90;;;;;;4987769;28;20038;-84
2022/11/07 02:10:24;;;;;;;3.38;1.00;;;13.10;99.90;;;;;;4985417;28;20026;-82
2022/11/07 02:12:50;;;;;;;5.90;1.17;;;13.10;99.90;;;;;;4984083;28;20047;-82
2022/11/07 02:15:16;;;;;;;3.38;0.77;;;13.10;99.90;;;;;;4980014;28;20415;-82
2022/11/07 02:17:42;;;;;;;8.38;1.13;;;13.10;99.90;;;;;;4999430;28;20026;-81
2022/11/07 02:20:08;;;;;;;4.60;1.13;;;13.10;99.90;;;;;;4997994;28;20059;-81
2022/11/07 02:22:54;;;;;;;5.22;1.20;;;13.10;99.90;;;;;;4997733;28;20033;-81
2022/11/07 02:25:20;;;;;;;8.75;1.30;;;13.10;99.90;;;;;;4986208;28;20034;-81
2022/11/07 02:27:48;;;;;;;4.40;1.02;;;13.10;99.90;;;;;;5016100;28;20025;-80
2022/11/07 02:30:17;;;;;;;5.82;1.50;;;13.10;99.90;;;;;;4986478;28;20460;-80
2022/11/07 02:32:51;;;;;;;4.88;0.70;;;13.10;99.90;;;;;;4983373;28;20048;-85
2022/11/07 02:35:35;;;;;;;;;;;13.10;99.90;;;;;;4983519;28;20042;-85
2022/11/07 02:38:14;;;;;;;6.57;1.27;;;13.10;99.90;;;;;;4998363;28;19932;-85
2022/11/07 02:40:42;;;;;;;7.43;1.10;;;13.10;99.90;;;;;;4998392;28;20027;-85
2022/11/07 02:43:10;;;;;;;7.25;1.00;;;13.10;99.90;;;;;;4971472;28;20079;-84
2022/11/07 02:45:40;;;;;;;5.78;1.63;;;13.20;99.90;;;;;;4980052;28;20492;-85
2022/11/07 02:48:06;;;;;;;2.78;0.50;;;13.10;99.90;;;;;;4983975;28;20073;-84
2022/11/07 02:50:32;;;;;;;5.18;0.93;;;13.10;99.90;;;;;;4997346;28;20033;-83
2022/11/07 02:52:58;;;;;;;4.22;0.88;;;13.20;99.90;;;;;;4979783;28;20025;-83
2022/11/07 02:55:23;;;;;;;4.88;0.85;;;13.10;99.90;;;;;;4987914;28;20030;-83
2022/11/07 02:57:49;;;;;;;5.10;0.82;;;13.20;99.90;;;;;;5007624;28;20023;-83
2022/11/07 03:00:15;;;;;;;4.53;0.90;;;13.20;99.90;;;;;;4996352;28;20034;-81
2022/11/07 03:02:45;;;;;;;3.80;0.90;;;13.10;99.90;;;;;;4997197;28;20490;-81
2022/11/07 03:05:13;;;;;;;7.07;0.98;;;13.20;99.90;;;;;;4979842;28;20022;-81
2022/11/07 03:07:40;;;;;;;3.97;0.90;;;13.10;99.90;;;;;;4997044;28;20027;-81
2022/11/07 03:10:06;;;;;;;3.92;0.57;;;13.20;99.90;;;;;;4980277;28;20379;-81
2022/11/07 03:12:32;;;;;;;9.80;1.17;;;13.20;99.90;;;;;;4997401;28;20033;-81
2022/11/07 03:14:57;;;;;;;3.38;0.98;;;13.10;99.90;;;;;;4996682;28;20414;-81
2022/11/07 03:17:23;;;;;;;8.20;1.05;;;13.10;99.90;;;;;;5007001;28;20505;-81
2022/11/07 03:19:49;;;;;;;4.22;0.80;;;13.10;99.90;;;;;;4989295;28;20030;-80
2022/11/07 03:22:14;;;;;;;9.15;1.30;;;13.20;99.90;;;;;;5032553;28;20125;-81
2022/11/07 03:24:40;;;;;;;6.50;0.80;;;13.20;99.90;;;;;;4996039;28;20101;-80
2022/11/07 03:27:05;;;;;;;7.30;1.00;;;13.20;99.90;;;;;;4982740;28;20107;-80
2022/11/07 03:29:31;;;;;;;4.63;1.05;;;13.30;99.90;;;;;;4999875;28;20034;-80
2022/11/07 03:31:57;;;;;;;7.05;1.17;;;13.30;99.90;;;;;;4979236;28;20035;-79
2022/11/07 03:34:22;;;;;;;6.35;1.25;;;13.30;99.90;;;;;;4998651;28;20026;-80
2022/11/07 03:36:48;;;;;;;4.45;1.13;;;13.30;99.90;;;;;;5010574;28;20026;-79
2022/11/07 03:39:14;;;;;;;6.00;1.08;;;13.30;99.90;;;;;;4997664;28;20448;-79
2022/11/07 03:41:39;;;;;;;5.18;1.13;;;13.30;99.90;;;;;;4996651;28;20045;-79
2022/11/07 03:44:05;;;;;;;4.80;1.10;;;13.30;99.90;;;;;;4996292;28;20027;-78
2022/11/07 03:46:31;;;;;;;5.22;0.90;;;13.30;99.90;;;;;;4979413;28;20050;-79
2022/11/07 03:48:56;;;;;;;3.45;0.80;;;13.30;99.90;;;;;;5001198;28;20026;-79
2022/11/07 03:51:22;;;;;;;3.50;0.75;;;13.20;99.90;;;;;;4997262;28;20033;-78
2022/11/07 03:53:47;;;;;;;8.20;1.23;;;13.30;99.90;;;;;;4996306;28;20097;-78
2022/11/07 03:56:13;;;;;;;6.18;1.27;;;13.30;99.90;;;;;;5001913;28;20034;-79
2022/11/07 03:58:39;;;;;;;5.25;0.95;;;13.20;99.90;;;;;;4999811;28;20058;-79
2022/11/07 04:01:05;;;;;;;9.20;1.08;;;13.20;99.90;;;;;;4995669;28;20493;-79
2022/11/07 04:03:31;;;;;;;8.05;1.50;;;13.20;99.90;;;;;;4978883;28;20087;-79
2022/11/07 04:05:57;;;;;;;3.70;0.90;;;13.20;99.90;;;;;;4996204;28;20038;-79
2022/11/07 04:08:23;;;;;;;5.97;1.02;;;13.20;99.90;;;;;;5004852;28;20075;-79
2022/11/07 04:10:49;;;;;;;6.95;1.05;;;13.20;99.90;;;;;;5010296;28;20856;-79
2022/11/07 04:18:44;;;;;;;3.17;0.85;;;13.30;99.90;;;;;;4984831;28;20559;-83
2022/11/07 04:21:09;;;;;;;4.07;1.00;;;13.30;99.90;;;;;;4979104;28;20038;-82
2022/11/07 04:23:35;;;;;;;8.18;1.20;;;13.30;99.90;;;;;;4995513;28;20123;-80
2022/11/07 04:28:45;;;;;;;4.05;0.82;;;13.20;99.90;;;;;;4999260;28;20042;-81
2022/11/07 04:31:10;;;;;;;2.50;0.68;;;13.20;99.90;;;;;;5012881;28;20486;-79
2022/11/07 04:33:36;;;;;;;4.25;1.00;;;13.20;99.90;;;;;;5005579;28;20019;-79
2022/11/07 04:36:01;;;;;;;4.68;0.90;;;13.20;99.90;;;;;;4978394;28;20061;-79
2022/11/07 04:38:27;;;;;;;3.30;0.82;;;13.20;99.90;;;;;;4984335;28;20087;-80
2022/11/07 04:40:56;;;;;;;8.43;1.15;;;13.20;99.90;;;;;;4979204;28;20042;-79
2022/11/07 04:43:24;;;;;;;6.43;0.73;;;13.20;99.90;;;;;;4978562;28;20084;-80
2022/11/07 04:45:50;;;;;;;4.35;0.73;;;13.20;99.90;;;;;;4978004;28;20064;-79
2022/11/07 04:48:16;;;;;;;7.30;0.85;;;13.20;99.90;;;;;;4995380;28;20075;-80
2022/11/07 04:50:42;;;;;;;7.03;1.13;;;13.10;99.90;;;;;;4998410;28;20025;-80
2022/11/07 04:53:16;;;;;;;3.03;0.90;;;13.20;99.90;;;;;;4981159;28;20014;-80
2022/11/07 04:55:42;;;;;;;4.55;0.90;;;13.20;99.90;;;;;;4978259;28;20486;-82
2022/11/07 04:58:09;;;;;;;2.97;0.70;;;13.10;99.90;;;;;;4978212;28;20471;-82
2022/11/07 05:00:35;;;;;;;6.95;1.20;;;13.10;99.90;;;;;;4977925;28;20061;-82
2022/11/07 05:03:01;;;;;;;4.68;0.80;;;13.10;99.90;;;;;;5000825;28;20033;-82
2022/11/07 05:05:26;;;;;;;5.75;0.93;;;13.10;99.90;;;;;;4986159;28;20041;-81
2022/11/07 05:07:52;;;;;;;7.05;1.38;;;13.10;99.90;;;;;;4983968;28;20023;-80
2022/11/07 05:10:19;;;;;;;9.18;1.52;;;13.10;99.90;;;;;;5005833;28;20108;-80
2022/11/07 05:12:45;;;;;;;4.30;0.93;;;13.10;99.90;;;;;;4979061;28;20059;-80
2022/11/07 05:15:11;;;;;;;5.78;0.90;;;13.10;99.90;;;;;;4998778;28;20030;-80
2022/11/07 05:17:37;;;;;;;4.85;1.23;;;13.10;99.90;;;;;;4995927;28;20030;-79
2022/11/07 05:20:03;;;;;;;6.28;0.98;;;13.10;99.90;;;;;;4995123;28;20080;-80
2022/11/07 05:25:13;;;;;;;6.15;1.05;;;13.10;99.90;;;;;;4995054;28;20053;-78
2022/11/07 05:27:38;;;;;;;5.30;1.00;;;13.10;99.90;;;;;;4998204;28;20031;-79
2022/11/07 05:30:05;;;;;;;7.50;1.38;;;13.10;99.90;;;;;;4977377;28;20030;-79
2022/11/07 05:32:32;;;;;;;4.53;1.10;;;13.10;99.90;;;;;;4981896;28;20026;-80
2022/11/07 05:34:58;;;;;;;5.90;1.48;;;13.10;99.90;;;;;;4995072;28;20038;-80
2022/11/07 05:37:23;;;;;;;4.25;1.00;;;13.10;99.90;;;;;;4994643;28;20030;-80
2022/11/07 05:39:49;;;;;;;3.88;0.93;;;13.10;99.90;;;;;;4988016;28;20038;-81
2022/11/07 05:42:15;;;;;;;7.88;1.48;;;13.20;99.90;;;;;;4979154;28;20517;-81
2022/11/07 05:44:40;;;;;;;9.95;1.40;;;13.20;99.90;;;;;;5036337;28;20054;-81
2022/11/07 05:47:06;;;;;;;4.78;1.10;;;13.20;99.90;;;;;;4983559;28;20102;-81
2022/11/07 05:49:31;;;;;;;8.82;1.50;;;13.20;99.90;;;;;;5001301;28;20034;-81
2022/11/07 05:51:57;;;;;;;9.10;1.50;;;13.20;99.90;;;;;;5012712;28;20022;-81
2022/11/07 05:54:26;;;;;;;6.03;1.08;;;13.30;99.90;;;;;;4977129;28;20034;-80
2022/11/07 05:56:55;;;;;;;9.02;1.42;;;13.30;99.90;;;;;;4977367;28;20445;-80
2022/11/07 05:59:20;;;;;;;11.82;1.42;;;13.30;99.90;;;;;;4980168;28;20099;-80
2022/11/07 06:01:46;;;;;;;8.40;1.42;;;13.30;99.90;;;;;;5000816;28;20026;-81
2022/11/07 06:04:12;;;;;;;11.48;1.40;;;13.30;99.90;;;;;;5000827;28;20056;-80
2022/11/07 06:06:37;;;;;;;8.40;1.63;;;13.30;99.90;;;;;;4994545;28;20023;-82
2022/11/07 06:09:03;;;;;;;8.15;1.60;;;13.30;99.90;;;;;;4994256;28;20069;-80
2022/11/07 06:11:31;;;;;;;14.32;1.55;;;13.40;99.90;;;;;;4976673;28;20061;-83
2022/11/07 06:13:57;;;;;;;5.57;1.42;;;13.40;99.90;;;;;;5016277;28;20160;-83
2022/11/07 06:16:23;;;;;;;6.63;1.23;;;13.40;99.90;;;;;;4977001;28;20056;-84
2022/11/07 06:18:49;;;;;;;7.75;1.27;;;13.40;99.90;;;;;;4996773;28;20030;-84
2022/11/07 06:21:15;;;;;;;5.28;1.05;;;13.40;99.90;;;;;;4994715;28;20610;-84
2022/11/07 06:23:42;;;;;;;4.30;0.93;;;13.40;99.90;;;;;;4976898;28;20062;-85
2022/11/07 06:26:07;;;;;;;4.15;1.10;;;13.40;99.90;;;;;;4979816;28;20033;-81
2022/11/07 06:28:33;;;;;;;4.90;1.00;;;13.40;99.90;;;;;;4994074;28;20026;-81
2022/11/07 06:31:00;;;;;;;5.25;0.82;;;13.40;99.90;;;;;;4977045;28;20054;-81
2022/11/07 06:33:26;;;;;;;8.85;1.45;;;13.40;99.90;;;;;;4977115;28;20034;-81
2022/11/07 06:35:54;;;;;;;7.68;1.33;;;13.40;99.90;;;;;;4976513;28;20458;-80
2022/11/07 06:38:20;;;;;;;9.15;1.35;;;13.40;99.90;;;;;;4980791;28;20466;-81
2022/11/07 06:40:46;;;;;;;8.43;1.30;;;13.40;99.90;;;;;;5003565;28;20069;-80
2022/11/07 06:43:14;;;;;;;5.07;0.98;;;13.40;99.90;;;;;;4992300;28;20536;-79
2022/11/07 06:45:40;;;;;;;6.20;1.45;;;13.40;99.90;;;;;;4999659;28;20030;-78
2022/11/07 06:48:07;;;;;;;7.68;1.30;;;13.40;99.90;;;;;;5009046;28;20410;-81
2022/11/07 06:50:33;;;;;;;3.63;1.15;;;13.40;99.90;;;;;;4996713;28;20026;-81
2022/11/07 06:53:07;;;;;;;4.95;0.80;;;13.40;99.90;;;;;;5010530;28;20049;-82
2022/11/07 06:55:34;;;;;;;5.13;1.00;;;13.40;99.90;;;;;;4994451;28;20118;-82
2022/11/07 06:58:01;;;;;;;5.25;0.90;;;13.40;99.90;;;;;;4994316;28;20038;-82
2022/11/07 07:00:28;;;;;;;6.25;1.15;;;13.40;99.90;;;;;;4980252;28;20081;-82
2022/11/07 07:02:53;;;;;;;7.53;1.52;;;13.40;99.90;;;;;;4997439;28;20029;-82
2022/11/07 07:05:19;;;;;;;5.45;1.08;;;13.40;99.90;;;;;;4997571;28;20031;-82
2022/11/07 07:07:44;;;;;;;4.03;0.82;;;13.40;99.90;;;;;;4979818;28;20058;-82
2022/11/07 07:10:10;;;;;;;3.90;0.98;;;13.40;99.90;;;;;;4997616;28;20019;-83
2022/11/07 07:12:36;;;;;;;6.55;1.85;;;13.30;99.90;;;;;;4997262;28;20452;-83
2022/11/07 07:15:02;;;;;;;5.97;1.10;;;13.40;99.90;;;;;;4997463;28;20611;-81
2022/11/07 07:17:27;;;;;;;6.65;1.05;;;13.40;99.90;;;;;;4997176;28;20398;-82
2022/11/07 07:19:53;;;;;;;7.57;1.38;;;13.40;99.90;;;;;;4997498;28;20029;-83
2022/11/07 07:22:19;;;;;;;5.68;1.00;;;13.40;99.90;;;;;;4997017;28;20037;-84
2022/11/07 07:24:46;;;;;;;5.95;1.48;;;13.40;99.90;;;;;;4980290;28;20026;-86
2022/11/07 07:27:12;;;;;;;3.10;0.77;;;13.40;99.90;;;;;;4997242;28;20046;-86
2022/11/07 07:29:38;;;;;;;6.38;1.15;;;13.40;99.90;;;;;;4993971;28;20461;-88
2022/11/07 07:32:04;;;;;;;6.28;1.20;;;13.40;99.90;;;;;;4987268;28;20033;-88
2022/11/07 07:34:29;;;;;;;3.42;0.82;;;13.40;99.90;;;;;;5033147;28;20026;-81
2022/11/07 07:36:55;;;;;;;3.53;1.15;;;13.50;99.90;;;;;;5009116;28;20636;-79
2022/11/07 07:39:22;;;;;;;4.55;1.17;;;13.50;99.90;;;;;;5006665;28;20033;-79
2022/11/07 07:41:49;;;;;;;6.60;1.15;;;13.50;99.90;;;;;;4996645;28;20034;-81
2022/11/07 07:44:14;;;;;;;6.20;1.17;;;13.50;99.90;;;;;;4980078;28;20570;-79
2022/11/07 07:46:40;;;;;;;6.82;1.27;;;13.50;99.90;;;;;;4977768;28;20089;-79
2022/11/07 07:49:07;;;;;;;6.80;1.33;;;13.50;99.90;;;;;;4995844;28;20045;-82
2022/11/07 07:51:33;;;;;;;3.90;0.90;;;13.50;99.90;;;;;;4996663;28;20429;-82
2022/11/07 07:53:58;;;;;;;5.45;1.02;;;13.50;99.90;;;;;;4996718;28;20026;-81
2022/11/07 07:56:24;;;;;;;3.67;0.90;;;13.50;99.90;;;;;;4979391;28;20030;-80
2022/11/07 07:58:49;;;;;;;2.13;0.60;;;13.50;99.90;;;;;;4979137;28;20035;-81
2022/11/07 08:01:15;;;;;;;3.38;1.05;;;13.60;99.90;;;;;;4979164;28;20026;-80
2022/11/07 08:03:41;;;;;;;4.05;0.82;;;13.60;99.90;;;;;;5004660;28;20127;-81
2022/11/07 08:06:08;;;;;;;2.50;0.65;;;13.60;99.90;;;;;;4992146;28;20113;-83
2022/11/07 08:08:34;;;;;;;4.97;1.00;;;13.60;99.90;;;;;;4989456;28;20113;-83
2022/11/07 08:11:01;;;;;;;2.38;0.70;;;13.60;99.90;;;;;;4976489;28;20099;-87
2022/11/07 08:13:27;;;;;;;2.42;0.90;;;13.60;99.90;;;;;;5044480;28;20061;-85
2022/11/07 08:15:52;;;;;;;5.22;1.00;;;13.60;99.90;;;;;;5008032;28;20018;-86
2022/11/07 08:18:20;;;;;;;8.10;1.00;;;13.60;99.90;;;;;;4990245;28;20026;-87
2022/11/07 08:20:49;;;;;;;6.03;1.05;;;13.70;99.90;;;;;;4978960;28;20030;-84
2022/11/07 08:23:14;;;;;;;5.47;0.88;;;13.70;99.90;;;;;;4996335;28;20026;-83
2022/11/07 08:25:41;;;;;;;4.57;0.90;;;13.70;99.90;;;;;;4994845;28;20479;-83
2022/11/07 08:28:07;;;;;;;4.82;0.95;;;13.70;99.90;;;;;;4986546;28;20075;-82
2022/11/07 08:30:34;;;;;;;3.88;0.80;;;13.70;99.90;;;;;;4981846;28;20026;-80
2022/11/07 08:33:02;;;;;;;4.53;0.90;;;13.80;99.90;;;;;;4998704;28;20022;-83
2022/11/07 08:35:28;;;;;;;3.63;1.15;;;13.80;99.90;;;;;;5015688;28;20053;-85
2022/11/07 08:37:54;;;;;;;3.65;0.70;;;13.80;99.90;;;;;;4988905;28;20548;-84
2022/11/07 08:40:21;;;;;;;5.93;1.00;;;13.90;99.90;;;;;;5001856;28;20030;-85
2022/11/07 08:42:46;;;;;;;3.13;0.80;;;13.90;99.90;;;;;;4987628;28;20050;-85
2022/11/07 08:45:14;;;;;;;2.60;1.15;;;14.00;99.90;;;;;;5008810;28;20027;-85
2022/11/07 08:47:40;;;;;;;8.15;1.33;;;14.00;99.90;;;;;;4996417;28;20130;-88
2022/11/07 08:50:06;;;;;;;5.95;1.00;;;14.00;99.90;;;;;;4978536;28;20030;-88
2022/11/07 08:52:34;;;;;;;6.50;1.38;;;14.00;99.90;;;;;;5003606;28;20066;-89
2022/11/07 08:55:00;;;;;;;6.22;1.63;;;14.10;99.90;;;;;;5044469;28;20049;-88
2022/11/07 08:57:25;;;;;;;6.57;1.92;;;14.10;99.90;;;;;;4979029;28;20027;-88
2022/11/07 08:59:51;;;;;;;8.68;1.73;;;14.20;99.90;;;;;;4981783;28;20494;-87
2022/11/07 09:02:17;;;;;;;6.22;1.58;;;14.20;99.90;;;;;;4978996;28;20399;-87
2022/11/07 09:04:42;;;;;;;5.07;1.30;;;14.30;99.90;;;;;;4982429;28;20042;-85
2022/11/07 09:07:08;;;;;;;7.30;1.20;;;14.30;99.90;;;;;;4982587;28;20113;-84
2022/11/07 09:09:33;;;;;;;5.70;1.60;;;14.30;99.90;;;;;;4994572;28;20034;-84
2022/11/07 09:11:59;;;;;;;7.57;1.50;;;14.40;99.90;;;;;;5013578;28;20022;-85
2022/11/07 09:14:27;;;;;;;4.53;1.33;;;14.40;99.90;;;;;;4996371;28;20025;-89
2022/11/07 09:16:53;;;;;;;5.60;1.02;;;14.40;99.90;;;;;;4989045;28;20029;-79
2022/11/07 09:19:18;;;;;;;5.80;1.15;;;14.40;99.90;;;;;;5012152;28;20030;-83
2022/11/07 09:21:44;;;;;;;11.00;3.22;;;14.50;99.90;;;;;;5017165;28;20029;-83
2022/11/07 09:24:10;;;;;;;8.45;1.88;;;14.60;99.90;;;;;;4996566;28;20029;-78
2022/11/07 09:26:35;;;;;;;7.07;1.67;;;14.70;99.90;;;;;;4997160;28;20101;-72
2022/11/07 09:29:01;;;;;;;8.13;1.35;;;14.70;99.90;;;;;;4986033;28;20022;-74
2022/11/07 09:31:27;;;;;;;5.20;1.48;;;14.80;99.90;;;;;;5014371;28;20033;-73
2022/11/07 09:33:52;;;;;;;7.97;1.48;;;14.90;99.90;;;;;;5014170;28;20029;-74
2022/11/07 09:36:19;;;;;;;7.57;1.35;;;14.90;99.90;;;;;;5003663;28;20371;-73
2022/11/07 09:38:44;;;;;;;9.32;1.60;;;14.90;99.90;;;;;;4998435;28;20031;-73
2022/11/07 09:41:48;;;;;;;8.75;1.75;;;15.00;99.90;;;;;;4994586;28;20514;-73
2022/11/07 09:44:44;;;;;;;11.38;1.73;;;15.00;99.90;;;;;;4976940;28;20076;-80
2022/11/07 09:47:28;;;;;;;11.95;2.40;;;15.10;99.90;;;;;;4994206;28;20045;-78
2022/11/07 09:50:13;;;;;;;7.05;1.83;;;15.10;99.90;;;;;;4994609;28;20034;-75
2022/11/07 09:52:50;;;;;;;4.07;1.08;;;15.20;99.90;;;;;;4977123;28;20026;-74
2022/11/07 09:55:30;;;;;;;5.05;1.23;;;15.20;99.90;;;;;;4994572;28;20061;-74
2022/11/07 09:58:00;;;;;;;13.23;1.90;;;15.30;99.90;;;;;;4993900;28;20491;-74
2022/11/07 10:00:29;;;;;;;6.72;1.63;;;15.30;99.90;;;;;;4993820;28;20109;-75
2022/11/07 10:02:58;;;;;;;7.53;1.20;;;15.30;99.90;;;;;;4994218;28;20111;-75
2022/11/07 10:05:40;;;;;;;11.38;2.40;;;15.40;99.90;;;;;;4994260;28;20037;-75
2022/11/07 10:08:18;;;;;;;10.93;1.98;;;15.40;99.90;;;;;;4996382;28;20025;-75
2022/11/07 10:10:48;;;;;;;10.27;2.55;;;15.40;99.90;;;;;;4993457;28;20107;-76
2022/11/07 10:13:26;;;;;;;12.48;2.08;;;15.50;99.90;;;;;;4993230;28;20030;-73
2022/11/07 10:15:58;;;;;;;7.25;1.52;;;15.50;99.90;;;;;;4993245;28;20034;-74
2022/11/07 10:18:42;;;;;;;10.77;2.13;;;15.50;99.90;;;;;;4993996;28;20029;-77
2022/11/07 10:21:22;;;;;;;12.20;2.05;;;15.60;99.90;;;;;;4994144;28;20101;-80
2022/11/07 10:24:18;;;;;;;10.77;2.03;;;15.60;99.90;;;;;;4975391;28;20029;-82
2022/11/07 10:26:44;;;;;;;7.03;1.65;;;15.60;99.90;;;;;;4991675;28;20054;-78
2022/11/07 10:29:16;;;;;;;9.23;1.83;;;15.60;99.90;;;;;;5001979;28;20026;-79
2022/11/07 10:31:57;;;;;;;11.93;1.85;;;15.60;99.90;;;;;;5013324;28;20037;-76
2022/11/07 10:34:36;;;;;;;9.40;1.65;;;15.70;99.90;;;;;;5015991;28;20030;-74
2022/11/07 10:37:03;;;;;;;8.40;2.03;;;15.80;99.90;;;;;;5016922;28;20499;-79
2022/11/07 10:39:30;;;;;;;10.68;2.35;;;15.80;99.90;;;;;;5006291;28;20023;-78
2022/11/07 10:42:15;;;;;;;10.73;1.80;;;15.80;99.90;;;;;;4997638;28;20034;-73
2022/11/07 10:44:42;;;;;;;14.80;2.55;;;15.90;99.90;;;;;;4998900;28;20083;-75
2022/11/07 10:47:16;;;;;;;11.18;2.20;;;15.90;99.90;;;;;;5041728;28;20592;-75
2022/11/07 10:49:56;;;;;;;11.98;2.17;;;16.00;99.90;;;;;;5099280;28;20035;-74
2022/11/07 10:52:23;;;;;;;8.95;2.05;;;16.10;99.90;;;;;;5099668;28;20028;-73
2022/11/07 10:54:49;;;;;;;8.55;2.20;;;16.20;99.90;;;;;;5099930;28;20097;-76
2022/11/07 10:57:21;;;;;;;13.15;2.58;;;16.30;99.90;;;;;;5109907;28;20032;-76
2022/11/07 10:59:56;;;;;;;12.32;2.00;;;16.20;99.90;;;;;;5099678;28;20036;-77
2022/11/07 11:02:23;;;;;;;11.18;2.20;;;16.30;99.90;;;;;;5100006;28;20027;-76
2022/11/07 11:05:02;;;;;;;14.10;2.60;;;16.30;99.90;;;;;;5099906;28;20031;-76
2022/11/07 11:07:35;;;;;;;16.20;2.90;;;16.30;99.90;;;;;;5099909;28;20020;-76
2022/11/07 11:10:01;;;;;;;10.57;2.40;;;16.30;99.90;;;;;;5108358;28;20020;-76
2022/11/07 11:12:33;;;;;;;8.82;1.75;;;16.30;99.90;;;;;;5114157;28;20012;-77
2022/11/07 11:15:10;;;;;;;10.55;2.35;;;16.30;99.90;;;;;;5095794;28;20031;-82
2022/11/07 11:17:36;;;;;;;9.70;2.00;;;16.20;99.90;;;;;;5115421;28;20023;-82
2022/11/07 11:20:03;;;;;;;8.77;2.08;;;16.20;99.90;;;;;;5109075;28;20080;-82
2022/11/07 11:22:28;;;;;;;14.93;2.42;;;16.20;99.90;;;;;;5119075;28;20569;-76
2022/11/07 11:25:01;;;;;;;11.65;2.58;;;16.20;99.90;;;;;;5120351;28;20038;-75
2022/11/07 11:27:30;;;;;;;11.13;2.38;;;16.10;99.90;;;;;;5120078;28;20093;-75
2022/11/07 11:30:06;;;;;;;10.90;2.17;;;16.10;99.90;;;;;;5119712;28;20082;-76
2022/11/07 11:32:55;;;;;;;9.75;2.13;;;16.10;99.90;;;;;;5120499;28;20344;-78
2022/11/07 11:35:38;;;;;;;12.60;1.95;;;16.10;99.90;;;;;;5120330;28;20469;-75
2022/11/07 11:38:20;;;;;;;16.10;2.67;;;16.00;99.90;;;;;;5116348;28;20095;-79
2022/11/07 11:40:54;;;;;;;8.50;1.77;;;16.10;99.90;;;;;;5099744;28;20462;-80
2022/11/07 11:43:31;;;;;;;10.05;1.98;;;16.10;99.90;;;;;;5099655;28;20020;-80
2022/11/07 11:46:09;;;;;;;13.10;2.40;;;16.10;99.90;;;;;;5097936;28;20024;-81
2022/11/07 11:48:37;;;;;;;10.18;2.40;;;16.10;99.90;;;;;;5117444;28;20040;-80
2022/11/07 11:51:11;;;;;;;12.57;2.25;;;16.20;99.90;;;;;;5108861;28;20464;-90
2022/11/07 11:53:37;;;;;;;9.90;1.90;;;16.30;99.90;;;;;;5104360;28;20059;-78
2022/11/07 11:56:05;;;;;;;6.38;1.75;;;16.30;99.90;;;;;;5101416;28;20024;-77
2022/11/07 11:58:44;;;;;;;17.48;2.83;;;16.40;99.90;;;;;;5119674;28;20027;-80
2022/11/07 12:01:38;;;;;;;5.60;1.48;;;16.40;99.90;;;;;;5100821;28;20024;-79
2022/11/07 12:04:31;;;;;;;13.27;2.42;;;16.50;99.90;;;;;;5109764;28;20024;-78
2022/11/07 12:07:25;;;;;;;11.32;2.53;;;16.50;99.90;;;;;;5088820;28;20464;-79
2022/11/07 12:10:04;;;;;;;10.55;2.75;;;16.50;99.90;;;;;;5085034;28;20469;-78
2022/11/07 12:12:47;;;;;;;12.60;2.13;;;16.40;99.90;;;;;;5119314;28;20427;-77
2022/11/07 12:15:21;;;;;;;11.85;2.47;;;16.50;99.90;;;;;;5113309;28;20016;-77
2022/11/07 12:17:59;;;;;;;14.20;2.58;;;16.50;99.90;;;;;;5117754;28;20035;-80
2022/11/07 12:21:00;;;;;;;7.22;1.70;;;16.60;99.90;;;;;;5119088;28;20030;-82
2022/11/07 12:23:51;;;;;;;13.02;2.28;;;16.70;99.90;;;;;;5081960;28;20459;-81
2022/11/07 12:26:51;;;;;;;10.43;2.20;;;16.70;99.90;;;;;;5073394;28;20163;-81
2022/11/07 12:29:26;;;;;;;9.13;2.10;;;16.70;99.90;;;;;;5069736;28;20047;-77
2022/11/07 12:32:04;;;;;;;6.75;1.95;;;16.50;99.90;;;;;;5073044;28;20103;-78
2022/11/07 12:35:06;;;;;;;11.70;2.10;;;16.40;99.90;;;;;;5096540;28;20036;-80
2022/11/07 12:37:41;;;;;;;12.25;2.25;;;16.30;99.90;;;;;;5077128;28;20086;-80
2022/11/07 12:40:50;;;;;;;9.57;2.05;;;16.10;99.90;;;;;;5098648;28;20024;-85
2022/11/07 12:43:30;;;;;;;8.95;1.92;;;16.10;99.90;;;;;;5041045;28;20092;-73
2022/11/07 12:46:08;;;;;;;9.63;1.92;;;16.10;99.90;;;;;;5096513;28;20115;-74
2022/11/07 12:48:34;;;;;;;6.40;1.40;;;16.10;99.90;;;;;;5115534;28;20040;-76
2022/11/07 12:51:03;;;;;;;10.27;1.83;;;16.20;99.90;;;;;;5117745;28;20483;-75
2022/11/07 12:53:55;;;;;;;11.75;1.90;;;16.30;99.90;;;;;;5086811;28;20023;-73
2022/11/07 12:56:26;;;;;;;11.65;2.03;;;16.40;99.90;;;;;;5114395;28;20095;-76
2022/11/07 12:58:53;;;;;;;11.43;2.30;;;16.50;99.90;;;;;;5099603;28;20488;-74
2022/11/07 13:01:27;;;;;;;12.10;2.67;;;16.60;99.90;;;;;;5105433;28;20035;-79
2022/11/07 13:04:09;;;;;;;8.98;1.92;;;16.60;99.90;;;;;;5103744;28;20038;-77
2022/11/07 13:07:01;;;;;;;10.90;2.10;;;16.60;99.90;;;;;;5085500;28;20028;-75
2022/11/07 13:09:35;;;;;;;8.30;1.90;;;16.60;99.90;;;;;;5109077;28;20484;-74
2022/11/07 13:12:25;;;;;;;9.95;2.17;;;16.60;99.90;;;;;;5108195;28;20023;-73